Time;durP1;ratioP1;P1;durP2;ratioP2;P2;SDS_P1;SDS_P2;PMS_P1;PMS_P2;Temp;Humidity;BMP_temperature;BMP_pressure;BME280_temperature;BME280_humidity;BME280_pressure;Samples;Min_cycle;Max_cycle;Signal;HPM_P1;HPM_P2
2022/06/26 00:01:15;;;;;;;12.80;11.60;;;18.40;99.90;;;;;;5014443;28;20049;-67
2022/06/26 00:03:40;;;;;;;12.38;11.27;;;18.30;99.90;;;;;;5014275;28;20041;-67
2022/06/26 00:06:06;;;;;;;14.23;12.85;;;18.30;99.90;;;;;;4998095;28;20080;-67
2022/06/26 00:08:31;;;;;;;12.18;11.07;;;18.30;99.90;;;;;;4993038;28;20084;-67
2022/06/26 00:10:57;;;;;;;14.65;13.18;;;18.30;99.90;;;;;;5008523;28;20049;-67
2022/06/26 00:13:23;;;;;;;15.77;12.98;;;18.30;99.90;;;;;;5008701;28;20624;-67
2022/06/26 00:15:48;;;;;;;14.68;13.27;;;18.30;99.90;;;;;;4996880;28;20045;-67
2022/06/26 00:18:14;;;;;;;15.75;14.35;;;18.30;99.90;;;;;;5013469;28;20045;-67
2022/06/26 00:20:40;;;;;;;14.93;13.52;;;18.20;99.90;;;;;;4997598;28;20052;-67
2022/06/26 00:23:06;;;;;;;16.63;15.07;;;18.20;99.90;;;;;;5010332;28;20140;-68
2022/06/26 00:25:32;;;;;;;15.68;14.27;;;18.20;99.90;;;;;;5002422;28;20045;-67
2022/06/26 00:27:58;;;;;;;15.73;14.40;;;18.20;99.90;;;;;;5007368;28;20049;-67
2022/06/26 00:30:23;;;;;;;16.65;15.20;;;18.20;99.90;;;;;;5008607;28;20124;-67
2022/06/26 00:32:49;;;;;;;15.80;14.45;;;18.10;99.90;;;;;;4993910;28;20092;-67
2022/06/26 00:35:15;;;;;;;15.73;14.30;;;18.10;99.90;;;;;;4992054;28;20053;-68
2022/06/26 00:37:40;;;;;;;17.10;15.60;;;18.10;99.90;;;;;;5013129;28;20519;-67
2022/06/26 00:40:08;;;;;;;16.52;15.10;;;18.10;99.90;;;;;;5009616;28;20499;-67
2022/06/26 00:42:34;;;;;;;17.70;16.00;;;18.10;99.90;;;;;;5009600;28;20042;-67
2022/06/26 00:45:00;;;;;;;17.55;15.88;;;18.10;99.90;;;;;;5013055;28;20048;-67
2022/06/26 00:47:25;;;;;;;17.27;15.68;;;18.10;99.90;;;;;;5008777;28;20045;-67
2022/06/26 00:49:51;;;;;;;17.50;16.00;;;18.10;99.90;;;;;;4977703;28;20042;-67
2022/06/26 00:52:18;;;;;;;18.90;17.20;;;18.10;99.90;;;;;;5007631;28;20045;-67
2022/06/26 00:54:44;;;;;;;17.52;15.82;;;18.00;99.90;;;;;;5013755;28;20047;-67
2022/06/26 00:57:10;;;;;;;17.23;15.52;;;18.00;99.90;;;;;;4992099;28;20478;-67
2022/06/26 00:59:36;;;;;;;18.20;16.58;;;18.00;99.90;;;;;;5019122;28;20383;-67
2022/06/26 01:02:02;;;;;;;17.63;16.02;;;18.00;99.90;;;;;;5013821;28;20049;-67
2022/06/26 01:04:28;;;;;;;17.98;16.33;;;18.00;99.90;;;;;;5017214;28;20041;-67
2022/06/26 01:06:54;;;;;;;18.48;16.83;;;18.00;99.90;;;;;;4993939;28;20495;-67
2022/06/26 01:09:20;;;;;;;16.02;14.48;;;18.00;99.90;;;;;;5021861;28;20424;-68
2022/06/26 01:11:46;;;;;;;15.40;14.10;;;18.00;99.90;;;;;;5029507;28;20110;-67
2022/06/26 01:14:12;;;;;;;15.35;13.95;;;18.10;99.90;;;;;;5000974;28;20071;-67
2022/06/26 01:16:40;;;;;;;15.77;14.50;;;18.10;99.90;;;;;;5011434;28;20510;-67
2022/06/26 01:19:07;;;;;;;14.75;13.40;;;18.20;99.90;;;;;;5017291;28;20033;-67
2022/06/26 01:21:33;;;;;;;17.40;15.80;;;18.30;99.90;;;;;;5030986;28;20049;-67
2022/06/26 01:24:00;;;;;;;18.00;16.17;;;18.30;99.90;;;;;;5017143;28;20062;-67
2022/06/26 01:26:26;;;;;;;18.05;16.42;;;18.20;99.90;;;;;;5028884;28;20045;-67
2022/06/26 01:28:52;;;;;;;15.55;13.93;;;18.10;99.90;;;;;;5028917;28;20404;-67
2022/06/26 01:31:21;;;;;;;18.00;16.48;;;18.20;99.90;;;;;;5016850;28;20049;-67
2022/06/26 01:33:50;;;;;;;18.05;16.42;;;18.30;99.90;;;;;;5009756;28;20050;-67
2022/06/26 01:36:16;;;;;;;16.08;14.40;;;18.30;99.90;;;;;;5032153;28;20142;-67
2022/06/26 01:38:42;;;;;;;15.10;13.63;;;18.30;99.90;;;;;;5009758;28;20124;-67
2022/06/26 01:41:08;;;;;;;15.25;13.70;;;18.40;99.90;;;;;;5009729;28;20045;-67
2022/06/26 01:43:36;;;;;;;15.27;13.75;;;18.40;99.90;;;;;;5027079;28;20053;-67
2022/06/26 01:46:03;;;;;;;14.90;13.43;;;18.40;99.90;;;;;;5029316;28;20034;-67
2022/06/26 01:48:30;;;;;;;13.90;12.65;;;18.50;99.90;;;;;;5021399;28;20046;-67
2022/06/26 01:50:57;;;;;;;14.57;13.15;;;18.50;99.90;;;;;;5019847;28;20522;-67
2022/06/26 01:53:23;;;;;;;12.70;11.60;;;18.50;99.90;;;;;;5020013;28;20041;-67
2022/06/26 01:55:49;;;;;;;12.70;11.40;;;18.50;99.90;;;;;;5028198;28;20056;-67
2022/06/26 01:58:15;;;;;;;14.50;13.20;;;18.50;99.90;;;;;;5047159;28;20040;-67
2022/06/26 02:00:43;;;;;;;15.32;13.77;;;18.50;99.90;;;;;;5033640;28;20047;-67
2022/06/26 02:03:09;;;;;;;12.82;11.57;;;18.50;99.90;;;;;;5043004;28;20045;-67
2022/06/26 02:05:35;;;;;;;14.77;13.32;;;18.60;99.90;;;;;;5016034;28;20054;-67
2022/06/26 02:08:02;;;;;;;13.93;12.73;;;18.60;99.90;;;;;;5032112;28;20045;-67
2022/06/26 02:15:58;;;;;;;13.98;12.57;;;18.60;99.90;;;;;;5021339;28;20045;-67
2022/06/26 02:18:24;;;;;;;12.43;11.23;;;18.60;99.90;;;;;;5012760;28;20376;-67
2022/06/26 02:20:50;;;;;;;13.77;12.48;;;18.60;99.90;;;;;;5024947;28;20052;-67
2022/06/26 02:23:16;;;;;;;15.00;13.60;;;18.70;99.90;;;;;;5032160;28;20053;-67
2022/06/26 02:25:42;;;;;;;14.57;12.95;;;18.70;99.90;;;;;;5015899;28;20623;-67
2022/06/26 02:28:09;;;;;;;16.00;13.85;;;18.70;99.90;;;;;;5032847;28;20037;-67
2022/06/26 02:30:34;;;;;;;15.45;13.95;;;18.70;99.90;;;;;;5011777;28;20045;-67
2022/06/26 02:33:00;;;;;;;18.20;14.77;;;18.70;99.90;;;;;;5001070;28;20044;-67
2022/06/26 02:35:27;;;;;;;15.68;14.10;;;18.70;99.90;;;;;;5003276;28;20584;-67
2022/06/26 02:37:54;;;;;;;17.13;15.13;;;18.70;99.90;;;;;;5012203;28;20074;-67
2022/06/26 02:40:21;;;;;;;18.75;16.20;;;18.70;99.90;;;;;;5013089;28;20056;-67
2022/06/26 02:42:47;;;;;;;16.27;14.60;;;18.60;99.90;;;;;;5013894;28;20052;-67
2022/06/26 02:45:13;;;;;;;16.58;14.68;;;18.60;99.90;;;;;;4997080;28;20041;-67
2022/06/26 02:47:39;;;;;;;19.50;15.70;;;18.60;99.90;;;;;;5011887;28;20608;-67
2022/06/26 02:50:06;;;;;;;15.82;14.10;;;18.60;99.90;;;;;;5013170;28;20092;-67
2022/06/26 02:52:32;;;;;;;16.33;14.82;;;18.60;99.90;;;;;;5013918;28;20042;-67
2022/06/26 02:54:58;;;;;;;16.25;14.75;;;18.50;99.90;;;;;;5028080;28;20064;-67
2022/06/26 02:57:24;;;;;;;13.52;12.15;;;18.50;99.90;;;;;;5012268;28;20368;-67
2022/06/26 02:59:49;;;;;;;17.08;13.43;;;18.50;99.90;;;;;;5014182;28;20041;-68
2022/06/26 03:02:15;;;;;;;11.63;10.60;;;18.40;99.90;;;;;;5022038;28;20037;-68
2022/06/26 03:04:42;;;;;;;12.70;11.50;;;18.40;99.90;;;;;;5006330;28;20102;-67
2022/06/26 03:07:08;;;;;;;12.30;11.15;;;18.40;99.90;;;;;;4996268;28;20037;-68
2022/06/26 03:09:33;;;;;;;12.40;11.10;;;18.30;99.90;;;;;;5014220;28;20059;-68
2022/06/26 03:11:59;;;;;;;11.07;8.10;;;18.30;99.90;;;;;;5014401;28;20049;-68
2022/06/26 03:14:24;;;;;;;10.00;8.95;;;18.30;99.90;;;;;;4996645;28;20048;-68
2022/06/26 03:16:50;;;;;;;9.10;8.35;;;18.30;99.90;;;;;;5009160;28;20033;-68
2022/06/26 03:19:15;;;;;;;8.00;7.10;;;18.30;99.90;;;;;;5012936;28;20037;-68
2022/06/26 03:21:41;;;;;;;6.88;6.28;;;18.20;99.90;;;;;;5008859;28;20061;-68
2022/06/26 03:24:07;;;;;;;6.75;6.15;;;18.20;99.90;;;;;;5016315;28;20057;-68
2022/06/26 03:26:35;;;;;;;7.38;6.40;;;18.20;99.90;;;;;;5012695;28;20108;-68
2022/06/26 03:29:02;;;;;;;6.88;6.18;;;18.10;99.90;;;;;;5029461;28;20091;-68
2022/06/26 03:31:28;;;;;;;7.30;6.55;;;18.10;99.90;;;;;;5027821;28;20087;-68
2022/06/26 03:33:56;;;;;;;7.80;6.20;;;18.10;99.90;;;;;;5029306;28;20431;-68
2022/06/26 03:36:23;;;;;;;6.93;6.32;;;18.10;99.90;;;;;;5022762;28;20079;-68
2022/06/26 03:38:49;;;;;;;6.75;6.15;;;18.00;99.90;;;;;;5024446;28;20029;-67
2022/06/26 03:41:15;;;;;;;8.95;6.03;;;17.90;99.90;;;;;;5005117;28;20042;-68
2022/06/26 03:43:40;;;;;;;6.90;5.25;;;17.90;99.90;;;;;;5010165;28;20376;-68
2022/06/26 03:46:06;;;;;;;5.50;5.10;;;17.90;99.90;;;;;;5018283;28;20490;-68
2022/06/26 03:48:32;;;;;;;5.72;4.82;;;17.90;99.90;;;;;;5029327;28;20056;-68
2022/06/26 03:50:58;;;;;;;5.57;4.85;;;17.90;99.90;;;;;;5030178;28;20053;-68
2022/06/26 03:53:24;;;;;;;5.63;4.53;;;17.90;99.90;;;;;;5029002;28;20029;-67
2022/06/26 03:55:50;;;;;;;4.40;4.00;;;17.90;99.90;;;;;;5025440;28;20412;-68
2022/06/26 03:58:16;;;;;;;4.55;3.90;;;17.90;99.90;;;;;;5016378;28;20078;-68
2022/06/26 04:00:42;;;;;;;4.25;3.75;;;17.90;99.90;;;;;;5030686;28;20080;-68
2022/06/26 04:03:08;;;;;;;6.32;3.80;;;17.90;99.90;;;;;;5028365;28;20037;-68
2022/06/26 04:05:35;;;;;;;3.78;3.30;;;17.90;99.90;;;;;;5035640;28;20052;-67
2022/06/26 04:08:01;;;;;;;4.10;3.45;;;17.80;99.90;;;;;;5027382;28;20033;-68
2022/06/26 04:10:27;;;;;;;3.95;3.25;;;17.80;99.90;;;;;;5026984;28;20077;-67
2022/06/26 04:12:53;;;;;;;5.82;3.05;;;17.80;99.90;;;;;;5015725;28;20056;-68
2022/06/26 04:15:19;;;;;;;3.88;3.22;;;17.80;99.90;;;;;;5027281;28;20506;-68
2022/06/26 04:17:45;;;;;;;4.13;3.05;;;17.80;99.90;;;;;;5011760;28;20047;-68
2022/06/26 04:20:11;;;;;;;4.22;3.10;;;17.70;99.90;;;;;;5028216;28;20051;-68
2022/06/26 04:22:37;;;;;;;3.17;2.97;;;17.80;99.90;;;;;;5028257;28;20402;-68
2022/06/26 04:25:04;;;;;;;3.75;2.70;;;17.70;99.90;;;;;;5028982;28;20060;-68
2022/06/26 04:27:30;;;;;;;4.10;3.47;;;17.70;99.90;;;;;;5027610;28;20694;-68
2022/06/26 04:29:55;;;;;;;4.22;2.90;;;17.80;99.90;;;;;;5008185;28;20090;-68
2022/06/26 04:32:21;;;;;;;3.80;2.88;;;17.80;99.90;;;;;;5020696;28;20065;-68
2022/06/26 04:34:47;;;;;;;3.38;2.80;;;17.80;99.90;;;;;;5028603;28;20061;-68
2022/06/26 04:37:12;;;;;;;2.90;2.70;;;17.90;99.90;;;;;;5024669;28;20380;-68
2022/06/26 04:39:38;;;;;;;4.18;2.83;;;17.90;99.90;;;;;;5011952;28;20095;-68
2022/06/26 04:42:04;;;;;;;4.88;2.85;;;18.00;99.90;;;;;;5010562;28;20041;-68
2022/06/26 04:44:30;;;;;;;3.30;2.90;;;18.00;99.90;;;;;;5027071;28;20046;-68
2022/06/26 04:46:55;;;;;;;4.00;2.80;;;18.00;99.90;;;;;;5006085;28;20039;-68
2022/06/26 04:49:21;;;;;;;3.08;2.88;;;18.00;99.90;;;;;;5022899;28;20041;-68
2022/06/26 04:51:46;;;;;;;4.03;3.38;;;17.90;99.90;;;;;;5024123;28;20482;-68
2022/06/26 04:54:12;;;;;;;3.47;3.20;;;17.80;99.90;;;;;;5026174;28;20505;-68
2022/06/26 04:56:38;;;;;;;4.47;3.95;;;17.80;99.90;;;;;;5025275;28;20045;-68
2022/06/26 04:59:05;;;;;;;3.80;3.50;;;17.80;99.90;;;;;;5027166;28;20144;-68
2022/06/26 05:01:31;;;;;;;4.60;4.20;;;17.80;99.90;;;;;;5016248;28;20046;-68
2022/06/26 05:03:57;;;;;;;4.65;4.25;;;17.80;99.90;;;;;;5006635;28;20041;-68
2022/06/26 05:06:23;;;;;;;5.30;4.22;;;17.80;99.90;;;;;;5023393;28;20040;-68
2022/06/26 05:08:49;;;;;;;4.82;4.32;;;17.90;99.90;;;;;;5020192;28;20112;-68
2022/06/26 05:11:15;;;;;;;5.28;4.45;;;17.90;99.90;;;;;;5026562;28;20126;-68
2022/06/26 05:13:41;;;;;;;5.40;4.55;;;18.00;99.90;;;;;;5027502;28;20474;-68
2022/06/26 05:16:06;;;;;;;5.28;4.72;;;18.10;99.90;;;;;;5028095;28;20052;-68
2022/06/26 05:18:32;;;;;;;4.72;4.20;;;18.10;99.90;;;;;;5019749;28;20045;-68
2022/06/26 05:20:58;;;;;;;4.40;4.00;;;18.30;99.90;;;;;;5027830;28;20132;-68
2022/06/26 05:23:24;;;;;;;4.30;3.90;;;18.40;99.90;;;;;;5033734;28;20124;-68
2022/06/26 05:25:51;;;;;;;4.85;4.45;;;18.50;99.90;;;;;;4997937;28;20065;-69
2022/06/26 05:28:17;;;;;;;4.30;3.90;;;18.60;99.90;;;;;;5009813;28;20103;-69
2022/06/26 05:30:43;;;;;;;4.40;4.00;;;18.70;99.90;;;;;;5030045;28;20045;-69
2022/06/26 05:33:09;;;;;;;4.95;4.57;;;18.70;99.90;;;;;;5015306;28;20041;-69
2022/06/26 05:35:34;;;;;;;5.22;4.80;;;18.80;99.90;;;;;;4997825;28;20046;-68
2022/06/26 05:40:28;;;;;;;5.63;4.97;;;18.70;99.90;;;;;;5048819;28;20052;-70
2022/06/26 05:42:55;;;;;;;5.53;5.13;;;18.70;99.90;;;;;;5036100;28;20044;-68
2022/06/26 05:45:21;;;;;;;6.25;5.75;;;18.60;99.90;;;;;;5036633;28;20036;-69
2022/06/26 05:47:46;;;;;;;5.47;4.97;;;18.60;99.90;;;;;;5051832;28;20049;-69
2022/06/26 05:50:12;;;;;;;5.95;5.45;;;18.70;99.90;;;;;;5021534;28;20045;-69
2022/06/26 05:52:38;;;;;;;5.78;5.15;;;18.70;99.90;;;;;;5032738;28;20041;-69
2022/06/26 05:55:04;;;;;;;6.32;5.80;;;18.80;99.90;;;;;;5037743;28;20130;-69
2022/06/26 05:57:30;;;;;;;7.05;6.45;;;19.00;99.90;;;;;;5035215;28;20052;-69
2022/06/26 05:59:56;;;;;;;6.55;5.95;;;19.00;99.90;;;;;;5039998;28;20390;-69
2022/06/26 06:02:21;;;;;;;6.75;6.22;;;19.30;99.90;;;;;;5026549;28;20056;-69
2022/06/26 06:04:47;;;;;;;7.32;6.63;;;19.40;99.90;;;;;;5058003;28;20045;-70
2022/06/26 06:07:13;;;;;;;7.20;6.60;;;19.50;99.90;;;;;;5035891;28;20044;-70
2022/06/26 06:09:38;;;;;;;8.05;7.35;;;19.60;99.90;;;;;;5036011;28;20073;-69
2022/06/26 06:12:04;;;;;;;8.00;7.30;;;19.60;99.90;;;;;;5054241;28;20041;-69
2022/06/26 06:14:30;;;;;;;8.68;7.88;;;19.70;99.90;;;;;;5035596;28;20102;-69
2022/06/26 06:16:56;;;;;;;8.13;7.43;;;19.70;99.90;;;;;;5053349;28;20037;-69
2022/06/26 06:19:21;;;;;;;8.73;7.97;;;19.80;99.90;;;;;;5047264;28;20483;-69
2022/06/26 06:21:47;;;;;;;9.52;8.63;;;19.80;99.90;;;;;;5000281;28;20510;-69
2022/06/26 06:24:12;;;;;;;10.00;9.00;;;20.00;99.90;;;;;;5034098;28;20565;-70
2022/06/26 06:26:38;;;;;;;9.88;8.98;;;20.00;99.90;;;;;;5025596;28;20071;-70
2022/06/26 06:29:04;;;;;;;10.32;9.43;;;20.20;99.90;;;;;;5044505;28;20094;-70
2022/06/26 06:31:30;;;;;;;10.43;9.52;;;20.50;99.90;;;;;;5057740;28;20049;-70
2022/06/26 06:33:55;;;;;;;10.68;9.77;;;21.10;99.90;;;;;;5056147;28;20041;-70
2022/06/26 06:36:21;;;;;;;10.48;9.57;;;21.50;99.90;;;;;;5027316;28;20079;-70
2022/06/26 06:38:47;;;;;;;10.80;9.80;;;21.90;99.90;;;;;;5035257;28;20049;-70
2022/06/26 06:41:12;;;;;;;11.60;10.40;;;22.20;99.90;;;;;;5052600;28;20088;-70
2022/06/26 06:43:38;;;;;;;10.48;9.57;;;21.90;99.90;;;;;;5035282;28;20741;-70
2022/06/26 06:46:03;;;;;;;10.57;9.68;;;22.00;99.90;;;;;;5042269;28;20160;-70
2022/06/26 06:48:29;;;;;;;11.48;10.57;;;22.00;99.90;;;;;;5038594;28;20039;-70
2022/06/26 06:50:55;;;;;;;12.20;11.00;;;22.00;99.90;;;;;;5062522;28;20503;-70
2022/06/26 06:53:21;;;;;;;13.07;12.00;;;21.80;99.90;;;;;;5040447;28;20060;-70
2022/06/26 06:55:47;;;;;;;13.25;12.05;;;21.70;99.90;;;;;;5015542;28;20103;-70
2022/06/26 06:58:12;;;;;;;14.07;12.68;;;21.60;99.90;;;;;;5023104;28;20489;-70
2022/06/26 07:00:38;;;;;;;13.63;12.40;;;21.50;99.90;;;;;;5035388;28;20037;-70
2022/06/26 07:03:05;;;;;;;14.43;13.20;;;21.30;99.90;;;;;;5033880;28;20072;-70
2022/06/26 07:05:31;;;;;;;14.38;13.13;;;21.20;99.90;;;;;;5035328;28;20071;-70
2022/06/26 07:07:57;;;;;;;14.32;13.02;;;21.10;99.90;;;;;;5012756;28;20064;-70
2022/06/26 07:10:23;;;;;;;15.02;13.68;;;21.10;99.90;;;;;;5031340;28;20069;-70
2022/06/26 07:12:53;;;;;;;13.85;12.55;;;21.30;99.90;;;;;;5028571;28;20072;-69
2022/06/26 07:15:19;;;;;;;15.13;13.80;;;21.50;99.90;;;;;;5041375;28;21011;-70
2022/06/26 07:17:45;;;;;;;16.50;15.00;;;21.60;99.90;;;;;;5034001;28;20041;-69
2022/06/26 07:20:11;;;;;;;15.73;14.52;;;21.60;99.90;;;;;;5037338;28;20037;-70
2022/06/26 07:22:36;;;;;;;17.05;15.55;;;21.60;99.90;;;;;;5034420;28;20713;-70
2022/06/26 07:25:02;;;;;;;17.08;15.48;;;21.90;99.90;;;;;;5018226;28;20136;-69
2022/06/26 07:27:28;;;;;;;15.93;14.63;;;22.60;99.90;;;;;;5013028;28;20048;-69
2022/06/26 07:29:53;;;;;;;15.77;14.50;;;23.10;99.90;;;;;;5031695;28;20075;-70
2022/06/26 07:32:19;;;;;;;16.63;15.13;;;23.20;99.90;;;;;;5034506;28;20048;-70
2022/06/26 07:34:44;;;;;;;15.38;13.93;;;23.30;99.90;;;;;;5034391;28;20037;-70
2022/06/26 07:37:10;;;;;;;15.23;13.93;;;23.70;99.90;;;;;;5034320;28;20045;-70
2022/06/26 07:39:36;;;;;;;15.00;13.70;;;24.10;99.90;;;;;;5030220;28;20048;-70
2022/06/26 07:42:01;;;;;;;14.60;13.43;;;24.00;99.90;;;;;;5018007;28;20038;-70
2022/06/26 07:44:27;;;;;;;16.23;14.82;;;24.00;99.90;;;;;;5031535;28;20068;-70
2022/06/26 07:46:53;;;;;;;15.57;14.32;;;23.60;99.90;;;;;;5032586;28;20471;-70
2022/06/26 07:49:18;;;;;;;15.90;14.35;;;23.10;99.90;;;;;;5017954;28;20029;-70
2022/06/26 07:51:44;;;;;;;15.25;13.85;;;22.70;99.90;;;;;;5032481;28;20029;-70
2022/06/26 07:54:09;;;;;;;14.85;13.43;;;22.90;99.90;;;;;;5045345;28;20382;-70
2022/06/26 07:56:36;;;;;;;15.10;13.55;;;22.80;99.90;;;;;;5032777;28;20044;-70
2022/06/26 07:59:01;;;;;;;15.35;13.90;;;22.80;99.90;;;;;;5021415;28;20091;-70
2022/06/26 08:01:27;;;;;;;15.07;13.63;;;22.90;99.90;;;;;;5028230;28;20041;-70
2022/06/26 08:03:53;;;;;;;13.27;12.07;;;23.70;99.90;;;;;;5034181;28;20048;-70
2022/06/26 08:06:19;;;;;;;12.68;11.48;;;24.60;99.90;;;;;;5033875;28;20033;-71
2022/06/26 08:08:45;;;;;;;13.30;12.10;;;25.10;99.90;;;;;;5049321;28;20638;-70
2022/06/26 08:11:10;;;;;;;12.00;10.90;;;25.10;99.90;;;;;;5051383;28;20044;-70
2022/06/26 08:13:36;;;;;;;12.10;10.90;;;25.00;99.70;;;;;;5032283;28;20383;-70
2022/06/26 08:16:02;;;;;;;11.32;10.43;;;24.80;99.90;;;;;;5029640;28;20047;-70
2022/06/26 08:18:28;;;;;;;12.52;11.20;;;24.60;99.90;;;;;;5012274;28;20072;-70
2022/06/26 08:20:53;;;;;;;12.35;11.27;;;24.40;99.90;;;;;;5007296;28;20037;-70
2022/06/26 08:23:19;;;;;;;10.40;9.50;;;24.40;99.90;;;;;;5022721;28;20096;-70
2022/06/26 08:25:45;;;;;;;11.00;10.07;;;24.30;99.90;;;;;;5029928;28;20041;-70
2022/06/26 08:28:11;;;;;;;10.60;9.80;;;24.20;99.90;;;;;;5050981;28;20486;-70
2022/06/26 08:30:36;;;;;;;10.45;9.55;;;24.20;99.90;;;;;;5032428;28;20048;-70
2022/06/26 08:33:02;;;;;;;10.38;9.48;;;24.10;99.90;;;;;;5031777;28;20568;-70
2022/06/26 08:35:28;;;;;;;11.15;10.18;;;24.20;99.90;;;;;;5037262;28;20051;-70
2022/06/26 08:37:55;;;;;;;9.98;8.88;;;24.20;99.90;;;;;;5055737;28;20127;-70
2022/06/26 08:40:21;;;;;;;10.35;9.45;;;24.40;99.90;;;;;;5026983;28;20076;-70
2022/06/26 08:42:51;;;;;;;9.13;8.25;;;24.30;99.90;;;;;;5032929;28;20045;-70
2022/06/26 08:45:19;;;;;;;9.82;7.20;;;24.20;99.90;;;;;;5014353;28;20057;-70
2022/06/26 08:47:49;;;;;;;6.20;5.60;;;24.00;99.90;;;;;;5038108;28;20437;-70
2022/06/26 08:50:17;;;;;;;6.07;5.47;;;23.90;99.90;;;;;;5041668;28;20103;-70
2022/06/26 08:52:44;;;;;;;6.03;5.45;;;23.70;99.90;;;;;;5017707;28;20063;-71
2022/06/26 08:55:10;;;;;;;6.50;5.90;;;23.60;99.90;;;;;;5040681;28;20533;-70
2022/06/26 08:57:36;;;;;;;6.63;5.30;;;23.50;99.90;;;;;;5047338;28;20119;-70
2022/06/26 09:00:03;;;;;;;5.65;4.93;;;23.60;99.90;;;;;;5034310;28;20067;-70
2022/06/26 09:02:29;;;;;;;5.63;4.40;;;23.60;99.90;;;;;;5044233;28;20123;-70
2022/06/26 09:04:55;;;;;;;4.70;3.88;;;23.70;99.90;;;;;;5051033;28;20120;-70
2022/06/26 09:07:22;;;;;;;4.90;2.53;;;23.60;99.90;;;;;;5040278;28;20811;-70
2022/06/26 09:09:47;;;;;;;2.95;2.67;;;23.50;99.20;;;;;;5058861;28;20493;-70
2022/06/26 09:12:13;;;;;;;6.50;2.72;;;23.30;99.40;;;;;;5033432;28;20116;-70
2022/06/26 09:14:38;;;;;;;3.78;2.80;;;23.10;99.90;;;;;;5027103;28;20391;-70
2022/06/26 09:17:05;;;;;;;4.45;3.00;;;23.00;99.90;;;;;;5047074;28;20516;-71
2022/06/26 09:19:36;;;;;;;3.28;2.42;;;23.00;99.90;;;;;;5031158;28;20123;-70
2022/06/26 09:22:05;;;;;;;2.20;2.00;;;23.00;99.90;;;;;;5030448;28;20044;-70
2022/06/26 09:24:33;;;;;;;4.60;1.95;;;23.00;99.10;;;;;;5050894;28;20045;-70
2022/06/26 09:27:10;;;;;;;3.00;1.98;;;23.00;99.90;;;;;;5050294;28;20033;-70
2022/06/26 09:29:38;;;;;;;4.00;1.63;;;23.10;99.90;;;;;;5012673;28;20041;-70
2022/06/26 09:32:12;;;;;;;1.95;1.83;;;23.30;99.90;;;;;;5032257;28;20045;-70
2022/06/26 09:34:42;;;;;;;2.92;2.20;;;23.50;99.90;;;;;;5049728;28;20045;-70
2022/06/26 09:37:10;;;;;;;3.92;1.90;;;23.60;98.60;;;;;;5018136;28;20052;-70
2022/06/26 09:39:35;;;;;;;2.47;1.70;;;23.60;97.90;;;;;;5021729;28;20049;-70
2022/06/26 09:42:21;;;;;;;2.20;1.67;;;23.80;99.20;;;;;;5015636;28;20550;-71
2022/06/26 09:44:59;;;;;;;3.58;2.42;;;23.90;98.30;;;;;;5024824;28;20125;-71
2022/06/26 09:47:35;;;;;;;3.13;2.83;;;24.10;98.80;;;;;;5049397;28;20094;-70
2022/06/26 09:50:07;;;;;;;3.45;2.55;;;24.40;98.10;;;;;;5038261;28;20090;-71
2022/06/26 09:52:33;;;;;;;2.92;2.63;;;24.40;98.20;;;;;;5027183;28;20045;-74
2022/06/26 09:55:01;;;;;;;3.35;2.70;;;24.10;98.40;;;;;;5031145;28;20045;-71
2022/06/26 09:57:28;;;;;;;4.90;2.50;;;24.10;99.10;;;;;;5028343;28;20054;-71
2022/06/26 09:59:55;;;;;;;2.90;2.70;;;24.10;99.40;;;;;;5039131;28;20045;-71
2022/06/26 10:07:53;;;;;;;3.65;1.67;;;23.80;98.10;;;;;;5036407;28;20741;-70
2022/06/26 10:10:25;;;;;;;2.90;1.85;;;23.90;98.40;;;;;;5036455;28;20117;-70
2022/06/26 10:12:55;;;;;;;2.03;1.50;;;24.10;98.00;;;;;;5039678;28;20045;-70
2022/06/26 10:15:27;;;;;;;2.80;1.70;;;24.10;96.00;;;;;;5017926;28;20048;-70
2022/06/26 10:17:58;;;;;;;;;;;24.20;97.40;;;;;;5024861;28;20037;-70
2022/06/26 10:20:28;;;;;;;2.60;1.80;;;24.20;97.60;;;;;;5057233;28;20492;-70
2022/06/26 10:22:54;;;;;;;2.40;2.20;;;24.30;97.00;;;;;;5032180;28;20036;-70
2022/06/26 10:25:27;;;;;;;2.40;1.88;;;24.20;96.70;;;;;;5035131;28;20477;-71
2022/06/26 10:27:53;;;;;;;3.47;2.08;;;24.40;97.40;;;;;;5048253;28;20124;-71
2022/06/26 10:30:21;;;;;;;3.97;2.75;;;24.60;97.40;;;;;;5037419;28;20029;-73
2022/06/26 10:33:07;;;;;;;2.90;2.67;;;25.00;97.20;;;;;;5043185;28;20120;-73
2022/06/26 10:35:45;;;;;;;3.17;2.80;;;25.10;95.10;;;;;;5017304;28;20033;-73
2022/06/26 10:38:18;;;;;;;3.13;2.30;;;25.00;93.80;;;;;;5028701;28;20029;-72
2022/06/26 10:43:49;;;;;;;3.55;2.58;;;25.10;95.80;;;;;;5025024;28;20041;-73
2022/06/26 10:46:14;;;;;;;4.53;2.70;;;25.10;95.60;;;;;;5033781;28;20498;-73
2022/06/26 10:48:50;;;;;;;4.82;2.50;;;25.00;96.00;;;;;;5034208;28;20052;-73
2022/06/26 10:51:24;;;;;;;4.28;2.60;;;25.00;94.80;;;;;;5053280;28;20033;-73
2022/06/26 10:53:49;;;;;;;2.25;1.98;;;24.80;95.70;;;;;;5029789;28;20040;-73
2022/06/26 10:56:15;;;;;;;4.95;2.50;;;24.80;96.10;;;;;;5032083;28;20035;-72
2022/06/26 10:58:45;;;;;;;3.05;2.13;;;24.80;96.10;;;;;;5035156;28;20041;-72
2022/06/26 11:01:12;;;;;;;3.80;2.35;;;24.70;95.50;;;;;;5042549;28;20391;-72
2022/06/26 11:03:39;;;;;;;2.50;2.20;;;24.70;96.20;;;;;;5030166;28;20102;-73
2022/06/26 11:06:13;;;;;;;5.65;2.38;;;24.70;96.40;;;;;;5052738;28;20041;-73
2022/06/26 11:08:45;;;;;;;3.75;2.40;;;24.70;96.50;;;;;;5030658;28;20153;-73
2022/06/26 11:11:25;;;;;;;2.65;2.45;;;24.90;95.80;;;;;;5030869;28;20033;-73
2022/06/26 11:13:53;;;;;;;2.72;2.08;;;24.70;95.70;;;;;;5030711;28;20092;-73
2022/06/26 11:16:48;;;;;;;3.90;2.70;;;24.90;95.90;;;;;;5031801;28;20115;-73
2022/06/26 11:20:46;;;;;;;3.28;2.33;;;25.00;95.60;;;;;;5011714;28;20041;-74
2022/06/26 11:22:18;;;;;;;3.60;2.30;;;25.20;95.50;;;;;;5032878;28;20111;-73
2022/06/26 11:24:50;;;;;;;4.28;2.58;;;25.30;95.70;;;;;;5031604;28;20656;-74
2022/06/26 11:27:20;;;;;;;3.33;2.20;;;25.40;95.30;;;;;;5032156;28;20036;-73
2022/06/26 11:29:47;;;;;;;2.90;2.38;;;25.30;94.30;;;;;;5034991;28;20045;-73
2022/06/26 11:32:12;;;;;;;2.65;2.00;;;25.50;94.90;;;;;;5031817;28;20474;-73
2022/06/26 11:34:48;;;;;;;3.03;2.15;;;25.60;95.40;;;;;;5018407;28;20037;-73
2022/06/26 11:37:14;;;;;;;3.33;2.15;;;25.50;93.30;;;;;;5016554;28;20048;-73
2022/06/26 11:39:41;;;;;;;3.40;2.25;;;25.60;94.70;;;;;;5024800;28;20056;-73
2022/06/26 11:42:15;;;;;;;2.20;2.00;;;25.60;94.60;;;;;;4999245;28;20056;-73
2022/06/26 11:44:52;;;;;;;3.03;2.08;;;25.60;94.30;;;;;;4995221;28;20048;-73
2022/06/26 11:47:18;;;;;;;3.70;1.70;;;25.70;92.60;;;;;;5013145;28;20060;-73
2022/06/26 11:49:44;;;;;;;2.15;1.75;;;25.70;94.00;;;;;;5014667;28;20532;-73
2022/06/26 11:52:10;;;;;;;2.20;1.88;;;25.90;94.30;;;;;;5031403;28;20108;-73
2022/06/26 11:54:36;;;;;;;3.70;1.65;;;26.10;93.40;;;;;;5014776;28;20403;-73
2022/06/26 11:57:07;;;;;;;3.70;2.13;;;26.10;92.60;;;;;;5013826;28;20123;-73
2022/06/26 11:59:32;;;;;;;4.13;2.30;;;25.90;90.40;;;;;;5030524;28;20044;-73
2022/06/26 12:01:58;;;;;;;3.10;1.92;;;25.80;93.10;;;;;;5012998;28;20037;-74
2022/06/26 12:04:23;;;;;;;2.25;1.63;;;25.70;92.00;;;;;;5014686;28;20107;-73
2022/06/26 12:06:52;;;;;;;3.33;1.55;;;25.60;93.10;;;;;;5031431;28;20045;-73
2022/06/26 12:09:22;;;;;;;2.85;1.85;;;25.70;93.90;;;;;;5013882;28;20073;-74
2022/06/26 12:11:50;;;;;;;2.80;1.73;;;25.90;93.50;;;;;;5027793;28;20041;-74
2022/06/26 12:14:18;;;;;;;3.08;1.88;;;25.90;93.00;;;;;;5037045;28;20460;-75
2022/06/26 12:16:52;;;;;;;5.40;1.70;;;26.00;93.30;;;;;;5026965;28;20452;-74
2022/06/26 12:19:19;;;;;;;4.45;2.10;;;25.80;91.70;;;;;;4999737;28;20072;-74
2022/06/26 12:21:53;;;;;;;2.90;1.90;;;25.70;92.90;;;;;;5013740;28;20041;-74
2022/06/26 12:24:20;;;;;;;4.78;1.83;;;25.70;92.20;;;;;;5013213;28;20037;-74
2022/06/26 12:26:46;;;;;;;4.35;2.15;;;25.70;91.00;;;;;;5045785;28;20124;-74
2022/06/26 12:29:14;;;;;;;2.50;1.63;;;25.80;92.20;;;;;;5047433;28;20132;-74
2022/06/26 12:31:40;;;;;;;3.03;1.80;;;25.90;92.70;;;;;;5026842;28;20041;-74
2022/06/26 12:34:07;;;;;;;3.17;1.80;;;25.90;91.50;;;;;;5013463;28;20037;-74
2022/06/26 12:36:33;;;;;;;1.58;1.40;;;26.00;92.70;;;;;;5014052;28;20049;-74
2022/06/26 12:39:00;;;;;;;2.63;1.50;;;26.00;92.40;;;;;;5021066;28;20132;-74
2022/06/26 12:41:26;;;;;;;3.38;1.95;;;25.90;92.00;;;;;;5032827;28;20467;-74
2022/06/26 12:43:54;;;;;;;4.95;1.83;;;26.10;92.20;;;;;;5033068;28;20052;-74
2022/06/26 12:46:20;;;;;;;3.35;1.98;;;26.00;90.60;;;;;;5050217;28;20049;-74
2022/06/26 12:48:46;;;;;;;2.67;1.63;;;26.00;91.40;;;;;;5027200;28;20493;-74
2022/06/26 12:51:13;;;;;;;2.42;1.75;;;26.10;91.30;;;;;;5033358;28;20040;-74
2022/06/26 12:53:40;;;;;;;2.83;1.70;;;26.00;91.10;;;;;;5033531;28;20044;-74